Time;durP1;ratioP1;P1;durP2;ratioP2;P2;SDS_P1;SDS_P2;PMS_P1;PMS_P2;Temp;Humidity;BMP_temperature;BMP_pressure;BME280_temperature;BME280_humidity;BME280_pressure;Samples;Min_cycle;Max_cycle;Signal;HPM_P1;HPM_P2
2022/12/20 00:00:11;;;;;;;4.72;1.75;;;;;;;-140.72;100.00;53170.13;6219975;23;20436;-72
2022/12/20 00:02:37;;;;;;;4.50;2.22;;;;;;;-140.72;100.00;53206.66;6246287;22;20171;-72
2022/12/20 00:05:02;;;;;;;8.02;2.25;;;;;;;-140.72;100.00;53190.41;6219554;23;20008;-72
2022/12/20 00:07:28;;;;;;;4.80;1.98;;;;;;;-140.72;100.00;53174.19;6218742;23;20008;-72
2022/12/20 00:09:53;;;;;;;3.75;1.90;;;;;;;-140.72;100.00;53182.28;6219362;23;20007;-71
2022/12/20 00:12:18;;;;;;;2.90;1.83;;;;;;;-140.72;100.00;53196.50;6219702;23;20004;-72
2022/12/20 00:14:44;;;;;;;2.92;1.75;;;;;;;-140.72;100.00;53172.16;6219886;23;20016;-72
2022/12/20 00:17:09;;;;;;;4.22;2.17;;;;;;;-140.72;100.00;53162.00;6219640;23;20011;-72
2022/12/20 00:19:34;;;;;;;2.67;1.63;;;;;;;-140.72;100.00;53129.53;6219198;23;20012;-72
2022/12/20 00:22:00;;;;;;;4.72;1.90;;;;;;;-140.72;100.00;53178.22;6219549;23;20453;-72
2022/12/20 00:24:25;;;;;;;4.80;1.83;;;;;;;-140.72;100.00;53194.47;6219566;23;20012;-71
2022/12/20 00:26:51;;;;;;;2.15;1.73;;;;;;;-140.72;100.00;53166.06;6218904;23;20408;-72
2022/12/20 00:29:16;;;;;;;2.70;1.55;;;;;;;-140.72;100.00;53182.28;6219168;23;20015;-72
2022/12/20 00:31:41;;;;;;;3.17;1.85;;;;;;;-140.72;100.00;53176.22;6219572;23;20333;-72
2022/12/20 00:34:08;;;;;;;3.00;2.05;;;;;;;-140.72;100.00;53164.03;6219423;23;20032;-72
2022/12/20 00:36:33;;;;;;;2.95;1.92;;;;;;;-140.72;100.00;53194.47;6219262;23;20008;-72
2022/12/20 00:39:00;;;;;;;2.75;1.80;;;;;;;-140.72;100.00;53200.56;6245884;23;20012;-72
2022/12/20 00:41:28;;;;;;;3.65;1.90;;;;;;;-140.72;100.00;53164.03;6245966;22;20045;-71
2022/12/20 00:43:54;;;;;;;3.67;2.22;;;;;;;-140.72;100.00;53204.63;6218658;23;20054;-72
2022/12/20 00:46:22;;;;;;;1.98;1.42;;;;;;;-140.72;100.00;53149.81;6246158;22;20001;-72
2022/12/20 00:48:47;;;;;;;3.88;1.98;;;;;;;-140.72;100.00;53210.72;6246329;22;20104;-72
2022/12/20 00:51:15;;;;;;;8.07;2.40;;;;;;;-140.72;100.00;53200.56;6245931;22;20015;-72
2022/12/20 00:53:41;;;;;;;4.43;1.92;;;;;;;-140.72;100.00;53172.16;6246080;22;20007;-71
2022/12/20 00:56:08;;;;;;;7.90;2.45;;;;;;;-140.72;100.00;53186.34;6247889;22;20071;-72
2022/12/20 00:58:36;;;;;;;3.17;1.80;;;;;;;-140.72;100.00;53192.44;6218627;23;20341;-72
2022/12/20 01:01:03;;;;;;;3.35;1.98;;;;;;;-140.72;100.00;53184.31;6218691;23;20095;-72
2022/12/20 01:03:28;;;;;;;3.35;1.80;;;;;;;-140.72;100.00;53210.72;6218857;23;20103;-72
2022/12/20 01:05:57;;;;;;;5.00;2.85;;;;;;;-140.72;100.00;53206.66;6218760;23;20062;-71
2022/12/20 01:08:23;;;;;;;4.00;2.65;;;;;;;-140.72;100.00;53243.19;6218738;23;20000;-72
2022/12/20 01:11:25;;;;;;;2.72;1.52;;;;;;;-140.72;100.00;53194.47;6218549;23;20012;-72
2022/12/20 01:13:53;;;;;;;7.18;2.95;;;;;;;-140.72;100.00;53194.47;6219183;23;20004;-72
2022/12/20 01:16:28;;;;;;;4.13;2.25;;;;;;;-140.72;100.00;53180.25;6247687;23;20090;-72
2022/12/20 01:18:53;;;;;;;3.60;2.13;;;;;;;-140.72;100.00;53231.00;6248014;23;20433;-72
2022/12/20 01:21:45;;;;;;;6.10;2.42;;;;;;;-140.72;100.00;53226.94;6220672;23;20050;-72
2022/12/20 01:24:14;;;;;;;4.82;2.45;;;;;;;-140.72;100.00;53190.41;6248693;23;20010;-71
2022/12/20 01:26:40;;;;;;;4.55;2.20;;;;;;;-140.72;100.00;53210.72;6222229;23;20008;-71
2022/12/20 01:29:09;;;;;;;8.63;2.75;;;;;;;-140.72;100.00;53228.97;6248595;22;20004;-71
2022/12/20 01:31:35;;;;;;;4.60;3.00;;;;;;;-140.72;100.00;53243.19;6223101;23;20007;-71
2022/12/20 01:34:01;;;;;;;2.78;2.08;;;;;;;-140.72;100.00;53182.28;6222167;23;20257;-71
2022/12/20 01:36:29;;;;;;;4.05;2.78;;;;;;;-140.72;100.00;53210.72;6221247;23;20012;-71
2022/12/20 01:38:57;;;;;;;3.80;2.17;;;;;;;-140.72;100.00;53194.47;6220877;23;20011;-71
2022/12/20 01:41:22;;;;;;;5.35;2.83;;;;;;;-140.72;100.00;53212.75;6220148;23;20012;-71
2022/12/20 01:43:57;;;;;;;6.03;2.40;;;;;;;-140.72;100.00;53204.63;6248548;23;20011;-71
2022/12/20 01:46:26;;;;;;;5.00;2.50;;;;;;;-140.72;100.00;53186.34;6221118;23;20095;-71
2022/12/20 01:49:00;;;;;;;5.50;1.98;;;;;;;-140.72;100.00;53196.50;6220688;23;20004;-71
2022/12/20 01:51:29;;;;;;;4.03;2.58;;;;;;;-140.72;100.00;53192.44;6220418;23;20502;-71
2022/12/20 01:54:00;;;;;;;2.78;1.92;;;;;;;-140.72;100.00;53164.03;6247566;22;20088;-71
2022/12/20 01:56:26;;;;;;;3.83;2.05;;;;;;;-140.72;100.00;53178.22;6220709;23;20057;-71
2022/12/20 01:58:53;;;;;;;2.70;1.80;;;;;;;-140.72;100.00;53214.78;6220900;23;20036;-71
2022/12/20 02:01:19;;;;;;;4.80;2.55;;;;;;;-140.72;100.00;53164.03;6220943;23;20004;-72
2022/12/20 02:03:45;;;;;;;2.47;1.95;;;;;;;-140.72;100.00;53188.38;6247490;22;20138;-71
2022/12/20 02:06:20;;;;;;;3.72;1.50;;;;;;;-140.72;100.00;53239.13;6220595;23;20013;-71
2022/12/20 02:08:48;;;;;;;3.70;2.30;;;;;;;-140.72;100.00;53226.94;6247302;22;20004;-72
2022/12/20 02:11:35;;;;;;;3.50;2.30;;;;;;;-140.72;100.00;53200.56;6220340;23;20031;-71
2022/12/20 02:14:15;;;;;;;2.38;1.90;;;;;;;-140.72;100.00;53198.53;6220678;23;20008;-71
2022/12/20 02:17:02;;;;;;;3.42;2.35;;;;;;;-140.72;100.00;53178.22;6247303;23;20830;-71
2022/12/20 02:20:16;;;;;;;3.13;1.70;;;;;;;-140.72;100.00;53239.13;6220246;23;20027;-71
2022/12/20 02:22:47;;;;;;;2.88;2.00;;;;;;;-140.72;100.00;53178.22;6114684;22;20411;-71
2022/12/20 02:25:31;;;;;;;4.90;2.13;;;;;;;-140.72;100.00;53170.13;6220273;23;20018;-71
2022/12/20 02:28:21;;;;;;;6.88;2.38;;;;;;;-140.72;100.00;53226.94;6220406;23;20507;-72
2022/12/20 02:30:49;;;;;;;2.92;1.90;;;;;;;-140.72;100.00;53200.56;6247270;23;20000;-72
2022/12/20 02:33:16;;;;;;;5.63;2.30;;;;;;;-140.72;100.00;53139.69;6220265;23;20384;-72
2022/12/20 02:35:41;;;;;;;3.13;1.55;;;;;;;-140.72;100.00;53226.94;6220412;23;20000;-72
2022/12/20 02:38:33;;;;;;;7.78;2.05;;;;;;;-140.72;100.00;53186.34;6247056;22;20055;-71
2022/12/20 02:41:01;;;;;;;6.80;2.33;;;;;;;-140.72;100.00;53176.22;6247220;22;20073;-72
2022/12/20 02:46:15;;;;;;;4.45;2.08;;;;;;;-140.72;100.00;53251.31;6247449;23;20452;-72
2022/12/20 02:48:41;;;;;;;3.10;2.15;;;;;;;-140.72;100.00;53212.75;6220403;23;20012;-72
2022/12/20 02:51:08;;;;;;;2.65;1.83;;;;;;;-140.72;100.00;53184.31;6219910;23;20422;-72
2022/12/20 02:53:36;;;;;;;1.77;1.27;;;;;;;-140.72;100.00;53164.03;6246684;22;20036;-71
2022/12/20 02:56:22;;;;;;;2.72;1.85;;;;;;;-140.72;100.00;53206.66;6219995;23;20008;-71
2022/12/20 02:58:53;;;;;;;2.95;1.88;;;;;;;-140.72;100.00;53184.31;6219927;23;20011;-71
2022/12/20 03:01:27;;;;;;;2.78;1.98;;;;;;;-140.72;100.00;53190.41;6219912;23;20106;-71
2022/12/20 03:04:02;;;;;;;4.60;1.80;;;;;;;-140.72;100.00;53147.78;6246230;23;20035;-71
2022/12/20 03:06:29;;;;;;;2.88;1.85;;;;;;;-140.72;100.00;53212.75;6219859;23;20000;-72
2022/12/20 03:08:55;;;;;;;3.03;1.60;;;;;;;-140.72;100.00;53198.53;6219466;23;20087;-72
2022/12/20 03:11:20;;;;;;;3.25;1.83;;;;;;;-140.72;100.00;53202.59;6219763;23;20472;-72
2022/12/20 03:13:45;;;;;;;3.30;1.52;;;;;;;-140.72;100.00;53176.22;6246828;23;20031;-72
2022/12/20 03:16:11;;;;;;;3.30;1.83;;;;;;;-140.72;100.00;53178.22;6220029;23;20004;-72
2022/12/20 03:18:37;;;;;;;3.88;1.70;;;;;;;-140.72;100.00;53206.66;6219606;23;20011;-72
2022/12/20 03:21:02;;;;;;;7.85;1.92;;;;;;;-140.72;100.00;53200.56;6219626;23;20073;-72
2022/12/20 03:23:28;;;;;;;3.65;1.58;;;;;;;-140.72;100.00;53184.31;6219852;23;20491;-72
2022/12/20 03:25:53;;;;;;;4.57;2.30;;;;;;;-140.72;100.00;53157.94;6219879;23;20091;-72
2022/12/20 03:28:18;;;;;;;4.38;2.15;;;;;;;-140.72;100.00;53172.16;6246686;22;20004;-71
2022/12/20 03:30:44;;;;;;;2.47;1.85;;;;;;;-140.72;100.00;53166.06;6221709;23;20012;-72
2022/12/20 03:33:11;;;;;;;3.63;2.10;;;;;;;-140.72;100.00;53208.69;6247631;22;20087;-72
2022/12/20 03:35:37;;;;;;;3.42;1.58;;;;;;;-140.72;100.00;53206.66;6219765;23;20005;-71
2022/12/20 03:38:02;;;;;;;4.90;1.52;;;;;;;-140.72;100.00;53174.19;6219715;23;20471;-72
2022/12/20 03:40:44;;;;;;;3.28;1.48;;;;;;;-140.72;100.00;53147.78;6246652;22;20004;-71
2022/12/20 03:43:09;;;;;;;4.20;1.92;;;;;;;-140.72;100.00;53149.81;6219800;23;20004;-72
2022/12/20 03:45:35;;;;;;;3.20;1.83;;;;;;;-140.72;100.00;53180.25;6219477;23;20015;-72
2022/12/20 03:48:00;;;;;;;4.07;1.85;;;;;;;-140.72;100.00;53198.53;6246283;22;20074;-72
2022/12/20 03:50:25;;;;;;;2.72;1.90;;;;;;;-140.72;100.00;53210.72;6219525;23;20007;-72
2022/12/20 03:52:51;;;;;;;2.65;1.33;;;;;;;-140.72;100.00;53194.47;6219660;23;20036;-72
2022/12/20 03:55:16;;;;;;;3.67;2.05;;;;;;;-140.72;100.00;53170.13;6246551;22;20421;-71
2022/12/20 03:57:41;;;;;;;2.83;1.75;;;;;;;-140.72;100.00;53202.59;6219927;23;20416;-72
2022/12/20 04:00:08;;;;;;;2.30;1.40;;;;;;;-140.72;100.00;53147.78;6219574;23;20433;-71
2022/12/20 04:02:33;;;;;;;2.60;1.60;;;;;;;-140.72;100.00;53180.25;6219804;23;20417;-72
2022/12/20 04:04:58;;;;;;;4.57;1.85;;;;;;;-140.72;100.00;53178.22;6219599;23;20004;-72
2022/12/20 04:07:24;;;;;;;4.88;1.77;;;;;;;-140.72;100.00;53153.88;6219618;23;20039;-71
2022/12/20 04:09:49;;;;;;;2.58;1.42;;;;;;;-140.72;100.00;53172.16;6218957;23;20077;-71
2022/12/20 04:12:14;;;;;;;5.05;2.08;;;;;;;-140.72;100.00;53168.09;6219341;23;20070;-71
2022/12/20 04:14:40;;;;;;;4.90;2.20;;;;;;;-140.72;100.00;53172.16;6219042;23;20008;-71
2022/12/20 04:17:05;;;;;;;2.85;1.38;;;;;;;-140.72;100.00;53174.19;6219389;23;20008;-71
2022/12/20 04:19:31;;;;;;;3.05;1.95;;;;;;;-140.72;100.00;53141.69;6219353;23;20058;-71
2022/12/20 04:21:57;;;;;;;3.42;2.08;;;;;;;-140.72;100.00;53135.63;6193965;23;20286;-71
2022/12/20 04:24:23;;;;;;;4.85;2.70;;;;;;;-140.72;100.00;53164.03;6219169;23;20000;-71
2022/12/20 04:26:48;;;;;;;6.28;2.25;;;;;;;-140.72;100.00;53157.94;6219210;23;20019;-71
2022/12/20 04:29:15;;;;;;;3.67;1.85;;;;;;;-140.72;100.00;53159.97;6246423;23;20012;-72
2022/12/20 04:31:41;;;;;;;3.28;1.75;;;;;;;-140.72;100.00;53231.00;6245953;22;20004;-71
2022/12/20 04:34:06;;;;;;;2.75;1.95;;;;;;;-140.72;100.00;53168.09;6218856;23;20425;-71
2022/12/20 04:36:32;;;;;;;3.15;1.92;;;;;;;-140.72;100.00;53174.19;6245888;22;20000;-71
2022/12/20 04:38:57;;;;;;;2.72;2.10;;;;;;;-140.72;100.00;53186.34;6218906;23;20015;-71
2022/12/20 04:41:22;;;;;;;4.60;2.05;;;;;;;-140.72;100.00;53176.22;6218795;23;20019;-71
2022/12/20 04:43:53;;;;;;;3.05;1.92;;;;;;;-140.72;100.00;53190.41;6245955;22;20011;-72
2022/12/20 04:46:20;;;;;;;2.58;1.77;;;;;;;-140.72;100.00;53176.22;6245998;22;20000;-72
2022/12/20 04:48:46;;;;;;;3.00;2.00;;;;;;;-140.72;100.00;53202.59;6218289;23;20008;-72
2022/12/20 04:51:11;;;;;;;5.00;2.78;;;;;;;-140.72;100.00;53168.09;6219302;23;20015;-72
2022/12/20 04:53:49;;;;;;;3.65;2.20;;;;;;;-140.72;100.00;53170.13;6219408;23;20054;-72
2022/12/20 04:56:17;;;;;;;3.35;2.28;;;;;;;-140.72;100.00;53174.19;6219406;23;20062;-72
2022/12/20 04:58:43;;;;;;;3.70;2.63;;;;;;;-140.72;100.00;53186.34;6218828;23;20056;-72
2022/12/20 05:01:09;;;;;;;3.30;2.17;;;;;;;-140.72;100.00;53196.50;6246072;23;20008;-71
2022/12/20 05:03:34;;;;;;;5.38;2.42;;;;;;;-140.72;100.00;53155.91;6218950;23;20103;-72
2022/12/20 05:06:00;;;;;;;5.25;2.30;;;;;;;-140.72;100.00;53178.22;6245714;22;20008;-72
2022/12/20 05:08:25;;;;;;;9.15;2.97;;;;;;;-140.72;100.00;53198.53;6218592;23;20000;-72
2022/12/20 05:10:51;;;;;;;4.20;3.05;;;;;;;-140.72;100.00;53174.19;6218906;23;20048;-72
2022/12/20 05:13:16;;;;;;;5.40;2.17;;;;;;;-140.72;100.00;53202.59;6219085;23;20336;-72
2022/12/20 05:15:42;;;;;;;6.88;2.47;;;;;;;-140.72;100.00;53214.78;6219251;23;20012;-72
2022/12/20 05:18:08;;;;;;;3.53;1.98;;;;;;;-140.72;100.00;53190.41;6247707;22;20004;-72
2022/12/20 05:20:33;;;;;;;3.60;2.20;;;;;;;-140.72;100.00;53166.06;6220789;23;20011;-72
2022/12/20 05:28:34;;;;;;;4.45;2.33;;;;;;;-140.72;100.00;53172.16;6246298;23;20100;-74
2022/12/20 05:31:01;;;;;;;2.38;1.60;;;;;;;-140.72;100.00;53149.81;6219549;23;20007;-71
2022/12/20 05:33:27;;;;;;;2.92;1.92;;;;;;;-140.72;100.00;53182.28;6220547;23;20117;-73
2022/12/20 05:35:53;;;;;;;2.08;1.40;;;;;;;-140.72;100.00;53202.59;6246238;23;20000;-73
2022/12/20 05:38:19;;;;;;;3.85;1.95;;;;;;;-140.72;100.00;53174.19;6244816;23;20012;-72
2022/12/20 05:40:47;;;;;;;2.78;2.17;;;;;;;-140.72;100.00;53145.75;6217257;23;20102;-72
2022/12/20 05:43:12;;;;;;;4.03;2.22;;;;;;;-140.72;100.00;53145.75;6217750;23;20409;-72
2022/12/20 05:45:38;;;;;;;2.50;1.80;;;;;;;-140.72;100.00;53172.16;6217644;23;20008;-72
2022/12/20 05:48:04;;;;;;;2.15;1.63;;;;;;;-140.72;100.00;53121.41;6217650;23;20000;-73
2022/12/20 05:50:30;;;;;;;4.55;1.98;;;;;;;-140.72;100.00;53162.00;6217725;23;20405;-73
2022/12/20 05:52:55;;;;;;;4.53;2.47;;;;;;;-140.72;100.00;53184.31;6218150;23;20008;-71
2022/12/20 05:55:21;;;;;;;4.32;2.53;;;;;;;-140.72;100.00;53153.88;6218010;23;20008;-72
2022/12/20 05:57:46;;;;;;;2.63;1.50;;;;;;;-140.72;100.00;53186.34;6245347;22;20015;-75
2022/12/20 06:00:12;;;;;;;3.28;1.98;;;;;;;-140.72;100.00;53147.78;6220340;23;20012;-77
2022/12/20 06:02:38;;;;;;;3.78;2.15;;;;;;;-140.72;100.00;53168.09;6221709;23;20011;-77
2022/12/20 06:05:03;;;;;;;2.10;1.50;;;;;;;-140.72;100.00;53178.22;6220977;23;20004;-76
2022/12/20 06:07:29;;;;;;;4.88;1.95;;;;;;;-140.72;100.00;53141.69;6221470;23;20004;-76
2022/12/20 06:09:56;;;;;;;3.08;1.40;;;;;;;-140.72;100.00;53174.19;6247818;22;20409;-71
2022/12/20 06:12:21;;;;;;;3.83;1.80;;;;;;;-140.72;100.00;53162.00;6247683;23;20086;-72
2022/12/20 06:14:47;;;;;;;2.67;1.83;;;;;;;-140.72;100.00;53186.34;6220684;23;20008;-72
2022/12/20 06:17:13;;;;;;;4.13;1.98;;;;;;;-140.72;100.00;53192.44;6221479;23;20011;-71
2022/12/20 06:20:12;;;;;;;3.10;1.60;;;;;;;-140.72;100.00;53196.50;6220435;23;20004;-72
2022/12/20 06:22:38;;;;;;;1.67;1.20;;;;;;;-140.72;100.00;53216.78;6220237;23;20004;-72
2022/12/20 06:25:04;;;;;;;2.92;1.58;;;;;;;-140.72;100.00;53182.28;6220510;23;20057;-72
2022/12/20 06:27:30;;;;;;;3.95;1.70;;;;;;;-140.72;100.00;53176.22;6220377;23;20004;-72
2022/12/20 06:29:55;;;;;;;2.95;1.55;;;;;;;-140.72;100.00;53157.94;6220314;23;20022;-72
2022/12/20 06:32:21;;;;;;;3.03;1.35;;;;;;;-140.72;100.00;53149.81;6220562;23;20421;-72
2022/12/20 06:34:46;;;;;;;2.75;1.85;;;;;;;-140.72;100.00;53182.28;6220402;23;20429;-71
2022/12/20 06:37:12;;;;;;;2.15;1.50;;;;;;;-140.72;100.00;53147.78;6247010;22;20015;-72
2022/12/20 06:39:37;;;;;;;3.38;1.50;;;;;;;-140.72;100.00;53190.41;6220395;23;20062;-72
2022/12/20 06:42:03;;;;;;;2.08;1.27;;;;;;;-140.72;100.00;53162.00;6220060;23;20019;-72
2022/12/20 06:44:29;;;;;;;2.03;1.10;;;;;;;-140.72;100.00;53174.19;6219852;23;20004;-72
2022/12/20 06:46:54;;;;;;;2.67;1.48;;;;;;;-140.72;100.00;53131.56;6247058;22;20021;-71
2022/12/20 06:49:21;;;;;;;3.72;1.60;;;;;;;-140.72;100.00;53153.88;6220185;23;20151;-71
2022/12/20 06:51:47;;;;;;;7.88;1.80;;;;;;;-140.72;100.00;53145.75;6247609;23;20008;-72
2022/12/20 06:54:12;;;;;;;2.97;1.55;;;;;;;-140.72;100.00;53147.78;6220086;23;20009;-72
2022/12/20 06:56:37;;;;;;;1.80;1.10;;;;;;;-140.72;100.00;53170.13;6219802;23;20015;-72
2022/12/20 06:59:04;;;;;;;1.75;1.15;;;;;;;-140.72;100.00;53192.44;6246930;23;20004;-71
2022/12/20 07:01:30;;;;;;;2.47;1.20;;;;;;;-140.72;100.00;53143.72;6246563;22;20008;-72
2022/12/20 07:03:55;;;;;;;2.30;1.25;;;;;;;-140.72;100.00;53168.09;6247085;22;20486;-72
2022/12/20 07:06:21;;;;;;;2.85;1.30;;;;;;;-140.72;100.00;53145.75;6221820;23;20737;-72
2022/12/20 07:08:46;;;;;;;2.13;1.40;;;;;;;-140.72;100.00;53180.25;6220166;23;20003;-72
2022/12/20 07:11:11;;;;;;;3.60;1.70;;;;;;;-140.72;100.00;53153.88;6246831;22;20019;-72
2022/12/20 07:13:37;;;;;;;2.88;1.63;;;;;;;-140.72;100.00;53143.72;6220105;23;20075;-71
2022/12/20 07:16:07;;;;;;;3.22;1.15;;;;;;;-140.72;100.00;53149.81;6219959;23;20035;-71
2022/12/20 07:18:34;;;;;;;1.48;0.95;;;;;;;-140.72;100.00;53125.47;6220475;23;20018;-72
2022/12/20 07:21:00;;;;;;;1.40;1.00;;;;;;;-140.72;100.00;53202.59;6247086;22;20004;-71
2022/12/20 07:23:26;;;;;;;1.30;0.82;;;;;;;-140.72;100.00;53176.22;6219930;23;20004;-71
2022/12/20 07:25:56;;;;;;;3.65;1.48;;;;;;;-140.72;100.00;53182.28;6219543;23;20012;-72
2022/12/20 07:28:23;;;;;;;6.55;1.67;;;;;;;-140.72;100.00;53178.22;6219659;23;20090;-72
2022/12/20 07:30:48;;;;;;;2.53;1.33;;;;;;;-140.72;100.00;53186.34;6246222;22;20008;-71
2022/12/20 07:33:14;;;;;;;2.72;1.55;;;;;;;-140.72;100.00;53170.13;6218586;23;20020;-72
2022/12/20 07:35:39;;;;;;;2.65;1.38;;;;;;;-140.72;100.00;53188.38;6218439;23;20004;-72
2022/12/20 07:38:05;;;;;;;4.40;1.67;;;;;;;-140.72;100.00;53164.03;6218569;23;20012;-72
2022/12/20 07:40:30;;;;;;;2.22;1.48;;;;;;;-140.72;100.00;53166.06;6218286;23;20004;-72
2022/12/20 07:42:56;;;;;;;3.10;1.40;;;;;;;-140.72;100.00;53170.13;6246110;22;20079;-72
2022/12/20 07:45:21;;;;;;;4.65;1.75;;;;;;;-140.72;100.00;53157.94;6220116;23;20004;-72
2022/12/20 07:47:46;;;;;;;2.22;1.23;;;;;;;-140.72;100.00;53166.06;6220138;23;20080;-71
2022/12/20 07:50:12;;;;;;;2.80;1.42;;;;;;;-140.72;100.00;53155.91;6218980;23;20012;-71
2022/12/20 07:52:41;;;;;;;2.75;1.50;;;;;;;-140.72;100.00;53190.41;6218485;23;20043;-71
2022/12/20 07:55:07;;;;;;;3.05;1.20;;;;;;;-140.72;100.00;53194.47;6218890;23;20008;-71
2022/12/20 07:57:41;;;;;;;3.38;1.52;;;;;;;-140.72;100.00;53212.75;6245261;23;20014;-71
2022/12/20 08:00:08;;;;;;;3.65;1.92;;;;;;;-140.72;100.00;53182.28;6218538;23;20432;-71
2022/12/20 08:02:37;;;;;;;3.13;1.85;;;;;;;-140.72;100.00;53174.19;6243779;23;20012;-71
2022/12/20 08:05:06;;;;;;;2.20;1.65;;;;;;;-140.72;100.00;53137.66;6245081;22;20060;-71
2022/12/20 08:07:32;;;;;;;8.45;2.03;;;;;;;-140.72;100.00;53188.38;6245746;22;20000;-71
2022/12/20 08:09:58;;;;;;;2.53;1.98;;;;;;;-140.72;100.00;53202.59;6218687;23;20012;-71
2022/12/20 08:12:27;;;;;;;2.20;1.58;;;;;;;-140.72;100.00;53157.94;6245336;23;20000;-72
2022/12/20 08:14:55;;;;;;;5.70;2.60;;;;;;;-140.72;100.00;53194.47;6218256;23;20079;-71
2022/12/20 08:17:21;;;;;;;3.35;2.10;;;;;;;-140.72;100.00;53231.00;6245501;23;20008;-71
2022/12/20 08:19:49;;;;;;;3.83;1.75;;;;;;;-140.72;100.00;53174.19;6245026;22;20008;-72
2022/12/20 08:22:15;;;;;;;5.22;2.47;;;;;;;-140.72;100.00;53190.41;6218277;23;20012;-72
2022/12/20 08:24:40;;;;;;;2.95;1.73;;;;;;;-140.72;100.00;53188.38;6217446;23;20395;-72
2022/12/20 08:27:05;;;;;;;3.35;1.38;;;;;;;-140.72;100.00;53194.47;6245095;23;20375;-71
2022/12/20 08:29:31;;;;;;;2.47;1.30;;;;;;;-140.72;100.00;53198.53;6218415;23;20012;-72
2022/12/20 08:31:56;;;;;;;2.42;1.55;;;;;;;-140.72;100.00;53190.41;6245184;22;20031;-72
2022/12/20 08:34:21;;;;;;;2.55;1.40;;;;;;;-140.72;100.00;53172.16;6218629;23;20012;-71
2022/12/20 08:36:47;;;;;;;2.63;1.60;;;;;;;-140.72;100.00;53166.06;6217676;23;20438;-72
2022/12/20 08:39:12;;;;;;;9.95;1.30;;;;;;;-140.72;100.00;53178.22;6245263;23;20024;-72
2022/12/20 08:41:38;;;;;;;2.53;1.48;;;;;;;-140.72;100.00;53198.53;6217903;23;20015;-71
2022/12/20 08:44:04;;;;;;;2.03;1.10;;;;;;;-140.72;100.00;53198.53;6218226;23;20015;-71
2022/12/20 08:46:29;;;;;;;7.13;1.73;;;;;;;-140.72;100.00;53190.41;6245854;22;20015;-71
2022/12/20 08:48:55;;;;;;;3.00;1.50;;;;;;;-140.72;100.00;53162.00;6218927;23;20429;-72
2022/12/20 08:51:25;;;;;;;2.40;1.85;;;;;;;-140.72;100.00;53182.28;6218943;23;20008;-73
2022/12/20 08:53:51;;;;;;;2.85;1.50;;;;;;;-140.72;100.00;53174.19;6222662;23;20008;-74
2022/12/20 08:56:51;;;;;;;2.88;1.65;;;;;;;-140.72;100.00;53180.25;6246262;23;20074;-74
2022/12/20 08:59:17;;;;;;;2.60;1.30;;;;;;;-140.72;100.00;53172.16;6219055;23;20028;-72
2022/12/20 09:01:42;;;;;;;4.72;1.90;;;;;;;-140.72;100.00;53214.78;6217720;23;20008;-71
2022/12/20 09:04:09;;;;;;;2.78;1.63;;;;;;;-140.72;100.00;53174.19;6217817;23;20008;-74
2022/12/20 09:06:35;;;;;;;4.70;1.30;;;;;;;-140.72;100.00;53166.06;6245175;22;20007;-72
2022/12/20 09:09:02;;;;;;;3.90;2.55;;;;;;;-140.72;100.00;53155.91;6218209;23;20023;-74
2022/12/20 09:11:30;;;;;;;2.80;1.70;;;;;;;-140.72;100.00;53241.16;6244660;22;20012;-73
2022/12/20 09:13:58;;;;;;;4.63;2.25;;;;;;;-140.72;100.00;53194.47;6219219;23;20023;-71
2022/12/20 09:16:31;;;;;;;13.38;4.03;;;;;;;-140.72;100.00;53198.53;6245089;23;20012;-72
2022/12/20 09:18:58;;;;;;;27.27;6.95;;;;;;;-140.72;100.00;53178.22;6245404;22;20339;-72
2022/12/20 09:21:24;;;;;;;3.85;1.80;;;;;;;-140.72;100.00;53198.53;6245170;22;20007;-72
2022/12/20 09:23:51;;;;;;;3.47;2.10;;;;;;;-140.72;100.00;53212.75;6245557;22;20507;-72
2022/12/20 09:26:18;;;;;;;4.38;2.67;;;;;;;-140.72;100.00;53186.34;6245773;22;20027;-72
2022/12/20 09:28:44;;;;;;;30.20;7.15;;;;;;;-140.72;100.00;53186.34;6218581;23;20432;-73
2022/12/20 09:31:13;;;;;;;10.32;4.53;;;;;;;-140.72;100.00;53170.13;6245913;22;20034;-71
2022/12/20 09:33:40;;;;;;;17.13;6.60;;;;;;;-140.72;100.00;53174.19;6218668;23;20441;-71
2022/12/20 09:36:06;;;;;;;15.77;7.65;;;;;;;-140.72;100.00;53233.03;6247252;23;20008;-71
2022/12/20 09:38:32;;;;;;;51.78;10.88;;;;;;;-140.72;100.00;53192.44;6248005;23;20371;-72
2022/12/20 09:41:02;;;;;;;35.75;9.45;;;;;;;-140.72;100.00;53141.69;6248032;23;20000;-72
2022/12/20 09:43:28;;;;;;;18.08;8.95;;;;;;;-140.72;100.00;53192.44;6221249;23;20091;-73
2022/12/20 09:45:59;;;;;;;2.85;1.80;;;;;;;-140.72;100.00;53188.38;6220941;23;20036;-76
2022/12/20 09:48:30;;;;;;;7.53;2.05;;;;;;;-140.72;100.00;53162.00;6220931;23;20372;-72
2022/12/20 09:51:03;;;;;;;44.35;13.32;;;;;;;-140.72;100.00;53200.56;6222257;23;20034;-73
2022/12/20 09:53:34;;;;;;;7.47;4.15;;;;;;;-140.72;100.00;53210.72;6219803;23;20027;-71
2022/12/20 09:56:19;;;;;;;3.83;2.30;;;;;;;-140.72;100.00;53196.50;6247788;23;20000;-73
2022/12/20 09:58:58;;;;;;;4.43;2.63;;;;;;;-140.72;100.00;53202.59;6220762;23;20008;-71
2022/12/20 10:01:25;;;;;;;2.42;2.15;;;;;;;-140.72;100.00;53192.44;6247335;23;20012;-70
2022/12/20 10:03:51;;;;;;;3.03;1.83;;;;;;;-140.72;100.00;53180.25;6247194;22;20114;-70
2022/12/20 10:06:41;;;;;;;3.38;2.10;;;;;;;-140.72;100.00;53176.22;6219574;23;20008;-71
2022/12/20 10:09:37;;;;;;;3.70;2.53;;;;;;;-140.72;100.00;53157.94;6245942;23;20011;-70
2022/12/20 10:12:14;;;;;;;5.15;1.95;;;;;;;-140.72;100.00;53180.25;6244821;23;20012;-70
2022/12/20 10:14:43;;;;;;;4.03;2.25;;;;;;;-140.72;100.00;53188.38;6218610;23;20038;-70
2022/12/20 10:17:56;;;;;;;6.00;2.97;;;;;;;-140.72;100.00;53196.50;6246018;23;20012;-71
2022/12/20 10:20:51;;;;;;;4.10;2.63;;;;;;;-140.72;100.00;53176.22;6153214;22;20461;-71
2022/12/20 10:23:42;;;;;;;4.53;2.65;;;;;;;-140.72;100.00;53168.09;6245807;23;20004;-71
2022/12/20 10:26:10;;;;;;;4.32;2.75;;;;;;;-140.72;100.00;53184.31;6218454;23;20394;-71
2022/12/20 10:28:36;;;;;;;5.70;2.78;;;;;;;-140.72;100.00;53194.47;6218926;23;20321;-71
2022/12/20 10:31:05;;;;;;;4.07;2.33;;;;;;;-140.72;100.00;53149.81;6246388;23;20004;-72
2022/12/20 10:33:31;;;;;;;3.40;2.30;;;;;;;-140.72;100.00;53194.47;6220762;23;20004;-71
2022/12/20 10:36:21;;;;;;;4.13;2.45;;;;;;;-140.72;100.00;53180.25;6219549;23;20505;-71
2022/12/20 10:38:49;;;;;;;3.58;2.35;;;;;;;-140.72;100.00;53182.28;6219785;23;20004;-71
2022/12/20 10:41:21;;;;;;;4.40;2.88;;;;;;;-140.72;100.00;53228.97;6251635;23;20082;-71
2022/12/20 10:44:14;;;;;;;5.07;2.90;;;;;;;-140.72;100.00;53190.41;6246971;23;20008;-71
2022/12/20 10:46:52;;;;;;;6.68;3.20;;;;;;;-140.72;100.00;53157.94;6219501;23;20412;-71
2022/12/20 10:49:27;;;;;;;10.75;4.18;;;;;;;-140.72;100.00;53190.41;6219635;23;20008;-71
2022/12/20 10:52:02;;;;;;;5.20;3.72;;;;;;;-140.72;100.00;53218.81;6220002;23;20441;-71
2022/12/20 10:54:42;;;;;;;11.73;4.90;;;;;;;-140.72;100.00;53178.22;6219595;23;20054;-71
2022/12/20 10:57:23;;;;;;;9.65;4.88;;;;;;;-140.72;100.00;53182.28;6245804;23;20455;-71
2022/12/20 11:00:00;;;;;;;8.05;3.25;;;;;;;-140.72;100.00;53192.44;6220098;23;20008;-71
2022/12/20 11:02:32;;;;;;;7.10;2.05;;;;;;;-140.72;100.00;53176.22;6220374;23;20004;-71
2022/12/20 11:04:58;;;;;;;4.35;2.80;;;;;;;-140.72;100.00;53194.47;6247170;23;20004;-71
2022/12/20 11:07:27;;;;;;;7.00;3.13;;;;;;;-140.72;100.00;53178.22;6219861;23;20054;-71
2022/12/20 11:10:15;;;;;;;5.55;2.95;;;;;;;-140.72;100.00;53168.09;6246630;23;20092;-71
2022/12/20 11:12:55;;;;;;;9.10;3.55;;;;;;;-140.72;100.00;53168.09;6246965;23;20016;-71
2022/12/20 11:15:27;;;;;;;5.90;2.92;;;;;;;-140.72;100.00;53149.81;6219801;23;20004;-71
2022/12/20 11:18:03;;;;;;;4.78;3.30;;;;;;;-140.72;100.00;53188.38;6220022;23;20019;-72
2022/12/20 11:20:44;;;;;;;9.20;3.45;;;;;;;-140.72;100.00;53172.16;6220291;23;20008;-72
2022/12/20 11:23:22;;;;;;;4.82;2.78;;;;;;;-140.72;100.00;53210.72;6246914;23;20001;-73
2022/12/20 11:26:02;;;;;;;9.57;3.67;;;;;;;-140.72;100.00;53168.09;6246460;23;20033;-72